Time,TemperatureF,DewpointF,PressureIn,WindDirection,WindDirectionDegrees,WindSpeedMPH,WindSpeedGustMPH,Humidity,HourlyPrecipIn,Conditions,Clouds,dailyrainin,SoftwareType,DateUTC
2013-02-15 00:02:00,34.7,30.0,29.94,North,5,1.0,1.0,83,0.00,,,0.01,meteohub,2013-02-15 05:02:00,
2013-02-15 00:07:00,34.5,29.8,29.94,WSW,242,0.0,1.0,83,0.00,,,0.00,meteohub,2013-02-15 05:07:00,
2013-02-15 00:12:00,34.2,29.8,29.94,WSW,242,0.0,1.0,84,0.00,,,0.00,meteohub,2013-02-15 05:12:00,
2013-02-15 00:17:00,33.8,29.5,29.94,WSW,242,0.0,1.0,84,0.00,,,0.00,meteohub,2013-02-15 05:17:00,
2013-02-15 00:22:00,33.3,29.3,29.94,WSW,241,0.0,1.0,85,0.00,,,0.00,meteohub,2013-02-15 05:22:00,
2013-02-15 00:32:00,32.4,28.9,29.94,WSW,243,0.0,1.0,87,0.00,,,0.00,meteohub,2013-02-15 05:32:00,
2013-02-15 00:37:00,31.8,28.8,29.94,WSW,243,0.0,1.0,88,0.00,,,0.00,meteohub,2013-02-15 05:37:00,
2013-02-15 00:42:00,31.5,28.4,29.94,WSW,243,0.0,1.0,88,0.00,,,0.00,meteohub,2013-02-15 05:42:00,
2013-02-15 00:47:00,30.9,27.9,29.94,WSW,243,0.0,1.0,88,0.00,,,0.00,meteohub,2013-02-15 05:47:00,
2013-02-15 00:52:00,30.9,28.4,29.94,WSW,243,0.0,1.0,90,0.00,,,0.00,meteohub,2013-02-15 05:52:00,
2013-02-15 00:57:00,31.3,28.9,29.94,WSW,244,0.0,1.0,91,0.00,,,0.00,meteohub,2013-02-15 05:57:00,
2013-02-15 01:02:00,30.9,28.4,29.94,WSW,242,1.0,1.0,90,0.00,,,0.00,meteohub,2013-02-15 06:02:00,
2013-02-15 01:07:00,30.7,28.2,29.94,NNW,333,0.0,1.0,90,0.00,,,0.00,meteohub,2013-02-15 06:07:00,
2013-02-15 01:12:00,30.6,28.0,29.94,NNW,333,0.0,2.0,90,0.00,,,0.00,meteohub,2013-02-15 06:12:00,
2013-02-15 01:17:00,30.4,27.9,29.94,NNW,333,0.0,2.0,90,0.00,,,0.00,meteohub,2013-02-15 06:17:00,
2013-02-15 01:22:00,30.0,27.5,29.94,NNW,332,0.0,2.0,90,0.00,,,0.00,meteohub,2013-02-15 06:22:00,
2013-02-15 01:27:00,29.7,27.3,29.94,NNW,332,0.0,1.0,91,0.00,,,0.00,meteohub,2013-02-15 06:27:00,
2013-02-15 01:32:00,29.7,27.3,29.94,NNW,332,0.0,0.0,91,0.00,,,0.00,meteohub,2013-02-15 06:32:00,
2013-02-15 01:37:00,29.1,26.8,29.94,NW,326,0.0,0.0,91,0.00,,,0.00,meteohub,2013-02-15 06:37:00,
2013-02-15 01:42:00,28.8,26.4,29.94,NW,326,0.0,0.0,91,0.00,,,0.00,meteohub,2013-02-15 06:42:00,
2013-02-15 01:47:00,28.6,26.6,29.94,NW,326,0.0,0.0,92,0.00,,,0.00,meteohub,2013-02-15 06:47:00,
2013-02-15 01:52:00,28.6,26.6,29.94,NW,326,0.0,0.0,92,0.00,,,0.00,meteohub,2013-02-15 06:52:00,
2013-02-15 01:57:00,28.6,26.6,29.94,NW,326,0.0,0.0,92,0.00,,,0.00,meteohub,2013-02-15 06:57:00,
2013-02-15 02:02:00,28.2,26.2,29.95,NW,326,0.0,0.0,92,0.00,,,0.00,meteohub,2013-02-15 07:02:00,
2013-02-15 02:07:00,28.0,26.2,29.95,NNW,342,0.0,0.0,93,0.00,,,0.00,meteohub,2013-02-15 07:07:00,
2013-02-15 02:12:00,28.0,26.1,29.95,NNW,342,0.0,1.0,92,0.00,,,0.00,meteohub,2013-02-15 07:12:00,
2013-02-15 02:17:00,27.9,25.9,29.94,NNW,341,0.0,1.0,92,0.00,,,0.00,meteohub,2013-02-15 07:17:00,
2013-02-15 02:22:00,27.5,25.5,29.94,NNW,342,0.0,1.0,92,0.00,,,0.00,meteohub,2013-02-15 07:22:00,
2013-02-15 02:27:00,27.3,25.5,29.95,NNW,341,0.0,1.0,93,0.00,,,0.00,meteohub,2013-02-15 07:27:00,
2013-02-15 02:32:00,27.3,25.5,29.95,NNW,342,1.0,1.0,93,0.00,,,0.00,meteohub,2013-02-15 07:32:00,
2013-02-15 02:37:00,27.5,25.7,29.95,NNW,342,0.0,1.0,93,0.00,,,0.00,meteohub,2013-02-15 07:37:00,
2013-02-15 02:42:00,27.7,25.9,29.95,NNW,341,0.0,1.0,93,0.00,,,0.00,meteohub,2013-02-15 07:42:00,
2013-02-15 02:47:00,27.3,25.5,29.95,NNW,342,0.0,1.0,93,0.00,,,0.00,meteohub,2013-02-15 07:47:00,
2013-02-15 02:52:00,27.0,25.2,29.95,NNW,341,0.0,0.0,93,0.00,,,0.00,meteohub,2013-02-15 07:52:00,
2013-02-15 02:57:00,26.8,25.0,29.95,WNW,288,0.0,0.0,93,0.00,,,0.00,meteohub,2013-02-15 07:57:00,
2013-02-15 03:02:00,26.8,25.3,29.95,WNW,288,0.0,0.0,94,0.00,,,0.00,meteohub,2013-02-15 08:02:00,
2013-02-15 03:07:00,26.8,25.3,29.95,WNW,288,0.0,0.0,94,0.00,,,0.00,meteohub,2013-02-15 08:07:00,
2013-02-15 03:12:00,27.0,25.5,29.95,WNW,288,0.0,0.0,94,0.00,,,0.00,meteohub,2013-02-15 08:12:00,
2013-02-15 03:17:00,27.0,25.5,29.96,WNW,288,0.0,0.0,94,0.00,,,0.00,meteohub,2013-02-15 08:17:00,
2013-02-15 03:22:00,26.8,25.3,29.96,WNW,288,0.0,0.0,94,0.00,,,0.00,meteohub,2013-02-15 08:22:00,
2013-02-15 03:27:00,26.4,25.0,29.96,WNW,288,0.0,0.0,94,0.00,,,0.00,meteohub,2013-02-15 08:27:00,
2013-02-15 03:32:00,26.2,24.8,29.96,WNW,288,0.0,0.0,94,0.00,,,0.00,meteohub,2013-02-15 08:32:00,
2013-02-15 03:37:00,26.1,24.6,29.96,WNW,288,0.0,0.0,94,0.00,,,0.00,meteohub,2013-02-15 08:37:00,
2013-02-15 03:42:00,26.2,24.8,29.96,WNW,292,1.0,0.0,94,0.00,,,0.00,meteohub,2013-02-15 08:42:00,
2013-02-15 03:47:00,26.4,25.0,29.96,WNW,290,0.0,1.0,94,0.00,,,0.00,meteohub,2013-02-15 08:47:00,
2013-02-15 03:52:00,26.2,24.8,29.96,WNW,291,0.0,1.0,94,0.00,,,0.00,meteohub,2013-02-15 08:52:00,
2013-02-15 03:57:00,26.1,24.6,29.96,WNW,290,1.0,1.0,94,0.00,,,0.00,meteohub,2013-02-15 08:57:00,
2013-02-15 04:02:00,25.9,24.4,29.96,South,169,2.0,2.0,94,0.00,,,0.00,meteohub,2013-02-15 09:02:00,
2013-02-15 04:07:00,26.1,24.6,29.96,South,174,0.0,2.0,94,0.00,,,0.00,meteohub,2013-02-15 09:07:00,
2013-02-15 04:12:00,26.2,25.0,29.96,South,175,0.0,2.0,95,0.00,,,0.00,meteohub,2013-02-15 09:12:00,
2013-02-15 04:17:00,26.2,24.8,29.96,WSW,242,1.0,2.0,94,0.00,,,0.00,meteohub,2013-02-15 09:17:00,
2013-02-15 04:22:00,26.4,25.2,29.96,West,264,0.0,2.0,95,0.00,,,0.00,meteohub,2013-02-15 09:22:00,
2013-02-15 04:27:00,26.4,25.0,29.97,West,264,0.0,2.0,94,0.00,,,0.00,meteohub,2013-02-15 09:27:00,
2013-02-15 04:32:00,26.4,25.0,29.97,West,264,0.0,2.0,94,0.00,,,0.00,meteohub,2013-02-15 09:32:00,
2013-02-15 04:37:00,26.6,25.2,29.97,West,270,1.0,1.0,94,0.00,,,0.00,meteohub,2013-02-15 09:37:00,
2013-02-15 04:42:00,26.4,25.0,29.97,West,262,0.0,2.0,94,0.00,,,0.00,meteohub,2013-02-15 09:42:00,
2013-02-15 04:47:00,26.4,25.0,29.97,West,263,0.0,2.0,94,0.00,,,0.00,meteohub,2013-02-15 09:47:00,
2013-02-15 04:52:00,26.2,24.8,29.97,West,263,0.0,2.0,94,0.00,,,0.00,meteohub,2013-02-15 09:52:00,
2013-02-15 04:57:00,26.2,24.8,29.97,West,263,0.0,1.0,94,0.00,,,0.00,meteohub,2013-02-15 09:57:00,
2013-02-15 05:02:00,26.1,24.6,29.97,West,263,0.0,1.0,94,0.00,,,0.00,meteohub,2013-02-15 10:02:00,
2013-02-15 05:07:00,25.9,24.4,29.97,West,263,0.0,0.0,94,0.00,,,0.00,meteohub,2013-02-15 10:07:00,
2013-02-15 05:12:00,25.3,23.5,29.97,West,263,0.0,1.0,93,0.00,,,0.00,meteohub,2013-02-15 10:12:00,
2013-02-15 05:17:00,25.3,23.9,29.97,West,262,0.0,1.0,94,0.00,,,0.00,meteohub,2013-02-15 10:17:00,
2013-02-15 05:22:00,25.2,23.7,29.97,West,263,0.0,1.0,94,0.00,,,0.00,meteohub,2013-02-15 10:22:00,
2013-02-15 05:27:00,25.3,23.9,29.97,West,263,0.0,1.0,94,0.00,,,0.00,meteohub,2013-02-15 10:27:00,
2013-02-15 05:32:00,25.3,24.1,29.98,West,262,1.0,1.0,95,0.00,,,0.00,meteohub,2013-02-15 10:32:00,
2013-02-15 05:37:00,25.3,23.9,29.98,West,263,0.0,1.0,94,0.00,,,0.00,meteohub,2013-02-15 10:37:00,
2013-02-15 05:42:00,25.3,23.9,29.98,West,263,0.0,1.0,94,0.00,,,0.00,meteohub,2013-02-15 10:42:00,
2013-02-15 05:47:00,25.3,23.9,29.99,SW,215,0.0,1.0,94,0.00,,,0.00,meteohub,2013-02-15 10:47:00,
2013-02-15 05:52:00,25.5,24.1,29.99,SSW,207,0.0,1.0,94,0.00,,,0.00,meteohub,2013-02-15 10:52:00,
2013-02-15 05:57:00,25.5,24.1,29.99,SSW,207,0.0,1.0,94,0.00,,,0.00,meteohub,2013-02-15 10:57:00,
2013-02-15 06:02:00,25.7,24.3,29.99,SW,222,0.0,0.0,94,0.00,,,0.00,meteohub,2013-02-15 11:02:00,
2013-02-15 06:07:00,26.1,24.8,29.99,WNW,283,0.0,0.0,95,0.00,,,0.00,meteohub,2013-02-15 11:07:00,
2013-02-15 06:12:00,26.1,24.6,29.99,West,281,0.0,0.0,94,0.00,,,0.00,meteohub,2013-02-15 11:12:00,
2013-02-15 06:17:00,26.1,24.6,29.99,West,281,0.0,0.0,94,0.00,,,0.00,meteohub,2013-02-15 11:17:00,
2013-02-15 06:27:00,26.1,24.6,29.99,West,281,0.0,0.0,94,0.00,,,0.00,meteohub,2013-02-15 11:27:00,
2013-02-15 06:32:00,26.2,24.8,30.00,West,271,0.0,0.0,94,0.00,,,0.00,meteohub,2013-02-15 11:32:00,
2013-02-15 06:37:00,26.2,24.8,30.00,West,264,0.0,0.0,94,0.00,,,0.00,meteohub,2013-02-15 11:37:00,
2013-02-15 06:42:00,26.2,24.8,30.00,West,266,0.0,0.0,94,0.00,,,0.00,meteohub,2013-02-15 11:42:00,
2013-02-15 06:47:00,26.4,25.0,30.00,West,266,0.0,0.0,94,0.00,,,0.00,meteohub,2013-02-15 11:47:00,
2013-02-15 06:52:00,26.4,25.0,30.00,SSE,150,0.0,0.0,94,0.00,,,0.00,meteohub,2013-02-15 11:52:00,
2013-02-15 06:57:00,26.6,25.2,30.00,NW,316,2.0,0.0,94,0.00,,,0.00,meteohub,2013-02-15 11:57:00,
2013-02-15 07:02:00,26.6,25.2,30.00,WNW,297,0.0,3.0,94,0.00,,,0.00,meteohub,2013-02-15 12:02:00,
2013-02-15 07:07:00,26.6,25.2,30.00,West,264,0.0,3.0,94,0.00,,,0.00,meteohub,2013-02-15 12:07:00,
2013-02-15 07:12:00,26.6,24.8,30.00,West,264,1.0,3.0,93,0.00,,,0.00,meteohub,2013-02-15 12:12:00,
2013-02-15 07:17:00,26.4,24.6,30.00,West,264,0.0,2.0,93,0.00,,,0.00,meteohub,2013-02-15 12:17:00,
2013-02-15 07:22:00,26.6,24.8,30.00,West,264,0.0,1.0,93,0.00,,,0.00,meteohub,2013-02-15 12:22:00,
2013-02-15 07:27:00,26.8,25.0,30.00,West,264,1.0,1.0,93,0.00,,,0.00,meteohub,2013-02-15 12:27:00,
2013-02-15 07:32:00,26.8,25.0,30.01,West,264,0.0,1.0,93,0.00,,,0.00,meteohub,2013-02-15 12:32:00,
2013-02-15 07:37:00,26.8,25.0,30.01,West,264,0.0,1.0,93,0.00,,,0.00,meteohub,2013-02-15 12:37:00,
2013-02-15 07:42:00,27.0,25.2,30.01,WSW,239,0.0,1.0,93,0.00,,,0.00,meteohub,2013-02-15 12:42:00,
2013-02-15 07:47:00,27.0,25.2,30.01,WSW,239,0.0,1.0,93,0.00,,,0.00,meteohub,2013-02-15 12:47:00,
2013-02-15 07:57:00,27.1,25.3,30.01,WSW,239,0.0,0.0,93,0.00,,,0.00,meteohub,2013-02-15 12:57:00,
2013-02-15 08:02:00,27.3,25.5,30.02,WSW,239,0.0,0.0,93,0.00,,,0.00,meteohub,2013-02-15 13:02:00,
2013-02-15 08:07:00,27.3,25.5,30.02,WSW,241,0.0,0.0,93,0.00,,,0.00,meteohub,2013-02-15 13:07:00,
2013-02-15 08:17:00,27.7,25.9,30.02,WSW,238,0.0,0.0,93,0.00,,,0.00,meteohub,2013-02-15 13:17:00,
2013-02-15 08:22:00,27.9,26.1,30.02,WSW,239,0.0,0.0,93,0.00,,,0.00,meteohub,2013-02-15 13:22:00,
2013-02-15 08:27:00,27.9,26.1,30.02,WSW,239,0.0,0.0,93,0.00,,,0.00,meteohub,2013-02-15 13:27:00,
2013-02-15 08:32:00,28.0,26.1,30.03,WSW,245,0.0,0.0,92,0.00,,,0.00,meteohub,2013-02-15 13:32:00,
2013-02-15 08:37:00,28.2,26.2,30.03,WSW,242,0.0,0.0,92,0.00,,,0.00,meteohub,2013-02-15 13:37:00,
2013-02-15 08:42:00,28.2,26.2,30.03,SSW,202,0.0,0.0,92,0.00,,,0.00,meteohub,2013-02-15 13:42:00,
2013-02-15 08:47:00,28.6,26.6,30.03,SSW,202,0.0,0.0,92,0.00,,,0.00,meteohub,2013-02-15 13:47:00,
2013-02-15 08:57:00,28.8,26.8,30.04,SSW,204,0.0,0.0,92,0.00,,,0.00,meteohub,2013-02-15 13:57:00,
2013-02-15 09:02:00,29.1,27.1,30.03,SSW,204,0.0,0.0,92,0.00,,,0.00,meteohub,2013-02-15 14:02:00,
2013-02-15 09:07:00,29.1,26.8,30.04,SW,222,0.0,0.0,91,0.00,,,0.00,meteohub,2013-02-15 14:07:00,
2013-02-15 09:12:00,29.5,27.5,30.03,SSW,200,0.0,0.0,92,0.00,,,0.00,meteohub,2013-02-15 14:12:00,
2013-02-15 09:17:00,29.8,27.9,30.03,ENE,60,0.0,0.0,92,0.00,,,0.00,meteohub,2013-02-15 14:17:00,
2013-02-15 09:22:00,30.2,28.2,30.03,ENE,63,0.0,0.0,92,0.00,,,0.00,meteohub,2013-02-15 14:22:00,
2013-02-15 09:27:00,30.7,28.8,30.03,East,95,0.0,0.0,92,0.00,,,0.00,meteohub,2013-02-15 14:27:00,
2013-02-15 09:32:00,31.1,28.8,30.03,NE,55,0.0,0.0,91,0.00,,,0.00,meteohub,2013-02-15 14:32:00,
2013-02-15 09:37:00,31.3,28.9,30.03,NNE,28,0.0,0.0,91,0.00,,,0.00,meteohub,2013-02-15 14:37:00,
2013-02-15 09:42:00,31.5,29.1,30.03,NNE,30,0.0,0.0,91,0.00,,,0.00,meteohub,2013-02-15 14:42:00,
2013-02-15 09:47:00,32.0,29.7,30.03,NNE,31,0.0,0.0,91,0.00,,,0.00,meteohub,2013-02-15 14:47:00,
2013-02-15 09:52:00,32.4,30.0,30.03,NNE,31,0.0,0.0,91,0.00,,,0.00,meteohub,2013-02-15 14:52:00,
2013-02-15 09:57:00,32.7,30.4,30.03,SSE,166,0.0,0.0,91,0.00,,,0.00,meteohub,2013-02-15 14:57:00,
2013-02-15 10:02:00,33.1,30.4,30.03,SSE,166,0.0,0.0,90,0.00,,,0.00,meteohub,2013-02-15 15:02:00,
2013-02-15 10:07:00,33.3,30.6,30.03,SSE,166,0.0,0.0,90,0.00,,,0.00,meteohub,2013-02-15 15:07:00,
2013-02-15 10:12:00,34.2,31.8,30.03,SSE,166,0.0,0.0,91,0.00,,,0.00,meteohub,2013-02-15 15:12:00,
2013-02-15 10:17:00,34.9,32.0,30.03,South,176,2.0,0.0,89,0.00,,,0.00,meteohub,2013-02-15 15:17:00,
2013-02-15 10:22:00,35.8,32.0,30.03,West,264,4.0,5.0,86,0.00,,,0.00,meteohub,2013-02-15 15:22:00,
2013-02-15 10:27:00,36.7,31.6,30.03,West,279,3.0,7.0,82,0.00,,,0.00,meteohub,2013-02-15 15:27:00,
2013-02-15 10:32:00,37.2,32.0,30.03,WSW,239,3.0,7.0,81,0.00,,,0.00,meteohub,2013-02-15 15:32:00,
2013-02-15 10:37:00,37.9,31.6,30.02,West,263,2.0,7.0,78,0.00,,,0.00,meteohub,2013-02-15 15:37:00,
2013-02-15 10:42:00,38.5,31.8,30.02,WSW,250,1.0,9.0,77,0.00,,,0.00,meteohub,2013-02-15 15:42:00,
2013-02-15 10:47:00,38.7,31.8,30.02,NW,314,1.0,9.0,76,0.00,,,0.00,meteohub,2013-02-15 15:47:00,
2013-02-15 10:52:00,38.8,30.9,30.02,West,264,2.0,9.0,73,0.00,,,0.00,meteohub,2013-02-15 15:52:00,
2013-02-15 10:57:00,39.4,31.5,30.02,WNW,288,5.0,9.0,73,0.00,,,0.00,meteohub,2013-02-15 15:57:00,
2013-02-15 11:02:00,39.7,31.1,30.02,NW,312,2.0,9.0,71,0.00,,,0.00,meteohub,2013-02-15 16:02:00,
2013-02-15 11:07:00,40.1,30.7,30.02,West,280,6.0,9.0,69,0.00,,,0.00,meteohub,2013-02-15 16:07:00,
2013-02-15 11:12:00,39.9,30.2,30.02,WNW,293,6.0,10.0,68,0.00,,,0.00,meteohub,2013-02-15 16:12:00,
2013-02-15 11:17:00,39.9,30.2,30.02,WNW,287,5.0,10.0,68,0.00,,,0.00,meteohub,2013-02-15 16:17:00,
2013-02-15 11:22:00,39.9,30.6,30.02,WSW,250,6.0,10.0,69,0.00,,,0.00,meteohub,2013-02-15 16:22:00,
2013-02-15 11:27:00,40.1,30.4,30.02,West,277,5.0,11.0,68,0.00,,,0.00,meteohub,2013-02-15 16:27:00,
2013-02-15 11:32:00,39.9,30.6,30.02,West,281,5.0,11.0,69,0.00,,,0.00,meteohub,2013-02-15 16:32:00,
2013-02-15 11:37:00,40.3,30.9,30.02,WNW,286,10.0,10.0,69,0.00,,,0.00,meteohub,2013-02-15 16:37:00,
2013-02-15 11:42:00,39.9,30.6,30.02,NNW,337,4.0,10.0,69,0.00,,,0.00,meteohub,2013-02-15 16:42:00,
2013-02-15 11:52:00,39.9,31.6,30.02,West,274,5.0,10.0,72,0.00,,,0.00,meteohub,2013-02-15 16:52:00,
2013-02-15 11:57:00,39.9,31.3,30.02,WNW,285,5.0,8.0,71,0.00,,,0.00,meteohub,2013-02-15 16:57:00,
2013-02-15 12:02:00,39.9,31.3,30.02,West,274,5.0,10.0,71,0.00,,,0.00,meteohub,2013-02-15 17:02:00,
2013-02-15 12:07:00,40.3,31.3,30.02,West,262,5.0,10.0,70,0.00,,,0.00,meteohub,2013-02-15 17:07:00,
2013-02-15 12:12:00,40.5,31.5,30.01,West,271,6.0,10.0,70,0.00,,,0.00,meteohub,2013-02-15 17:12:00,
2013-02-15 12:22:00,40.6,30.6,30.01,NNW,340,7.0,10.0,67,0.00,,,0.00,meteohub,2013-02-15 17:22:00,
2013-02-15 12:27:00,40.8,30.4,30.01,West,270,4.0,10.0,66,0.00,,,0.00,meteohub,2013-02-15 17:27:00,
2013-02-15 12:32:00,40.6,30.2,30.01,WSW,238,3.0,9.0,66,0.00,,,0.00,meteohub,2013-02-15 17:32:00,
2013-02-15 12:37:00,40.6,30.9,30.01,NW,316,2.0,9.0,68,0.00,,,0.00,meteohub,2013-02-15 17:37:00,
2013-02-15 12:47:00,40.5,30.0,30.01,NW,319,5.0,8.0,66,0.00,,,0.00,meteohub,2013-02-15 17:47:00,
2013-02-15 12:52:00,40.5,30.4,30.01,West,267,6.0,8.0,67,0.00,,,0.00,meteohub,2013-02-15 17:52:00,
2013-02-15 12:57:00,41.2,31.8,30.01,WNW,295,6.0,9.0,69,0.00,,,0.00,meteohub,2013-02-15 17:57:00,
2013-02-15 13:07:00,40.8,30.0,30.01,WNW,285,4.0,9.0,65,0.00,,,0.00,meteohub,2013-02-15 18:07:00,
2013-02-15 13:12:00,40.6,29.5,30.01,NW,325,4.0,12.0,64,0.00,,,0.00,meteohub,2013-02-15 18:12:00,
2013-02-15 13:17:00,40.5,30.0,30.01,West,262,4.0,12.0,66,0.00,,,0.00,meteohub,2013-02-15 18:17:00,
2013-02-15 13:22:00,40.5,30.0,30.01,NNW,342,4.0,12.0,66,0.00,,,0.00,meteohub,2013-02-15 18:22:00,
2013-02-15 13:27:00,40.3,29.1,30.00,NW,309,3.0,11.0,64,0.00,,,0.00,meteohub,2013-02-15 18:27:00,
2013-02-15 13:32:00,40.3,30.2,30.00,NNW,344,7.0,12.0,67,0.00,,,0.00,meteohub,2013-02-15 18:32:00,
2013-02-15 13:37:00,40.3,30.6,30.00,NW,323,6.0,12.0,68,0.00,,,0.00,meteohub,2013-02-15 18:37:00,
2013-02-15 13:42:00,40.5,30.7,30.00,WSW,256,6.0,12.0,68,0.00,,,0.00,meteohub,2013-02-15 18:42:00,
2013-02-15 13:47:00,40.5,29.7,30.00,WSW,246,6.0,12.0,65,0.00,,,0.00,meteohub,2013-02-15 18:47:00,
2013-02-15 13:52:00,40.6,28.6,30.00,WNW,295,8.0,13.0,62,0.00,,,0.00,meteohub,2013-02-15 18:52:00,
2013-02-15 13:57:00,40.8,28.8,29.99,WNW,294,6.0,13.0,62,0.00,,,0.00,meteohub,2013-02-15 18:57:00,
2013-02-15 14:02:00,40.8,28.4,30.00,WNW,282,9.0,13.0,61,0.00,,,0.00,meteohub,2013-02-15 19:02:00,
2013-02-15 14:07:00,40.8,27.1,30.00,WNW,298,5.0,12.0,58,0.00,,,0.00,meteohub,2013-02-15 19:07:00,
2013-02-15 14:12:00,40.6,25.3,29.99,West,274,5.0,12.0,54,0.00,,,0.00,meteohub,2013-02-15 19:12:00,
2013-02-15 14:17:00,40.8,25.0,29.99,WSW,241,3.0,12.0,53,0.00,,,0.00,meteohub,2013-02-15 19:17:00,
2013-02-15 14:22:00,41.5,26.1,29.99,West,272,7.0,11.0,54,0.00,,,0.00,meteohub,2013-02-15 19:22:00,
2013-02-15 14:27:00,42.1,26.6,29.99,West,266,7.0,15.0,54,0.00,,,0.00,meteohub,2013-02-15 19:27:00,
2013-02-15 14:32:00,42.3,25.9,29.99,North,354,6.0,15.0,52,0.00,,,0.00,meteohub,2013-02-15 19:32:00,
2013-02-15 14:37:00,41.5,25.7,29.99,WNW,283,6.0,10.0,53,0.00,,,0.00,meteohub,2013-02-15 19:37:00,
2013-02-15 14:42:00,41.5,27.9,29.99,NNW,331,5.0,13.0,58,0.00,,,0.00,meteohub,2013-02-15 19:42:00,
2013-02-15 14:47:00,40.5,29.7,29.99,NNW,329,6.0,19.0,65,0.00,,,0.00,meteohub,2013-02-15 19:47:00,
2013-02-15 14:57:00,39.6,29.1,30.00,WNW,297,8.0,19.0,66,0.00,,,0.00,meteohub,2013-02-15 19:57:00,
2013-02-15 15:02:00,39.6,28.8,30.00,West,270,4.0,16.0,65,0.00,,,0.00,meteohub,2013-02-15 20:02:00,
2013-02-15 15:07:00,39.6,29.1,30.00,WSW,246,3.0,14.0,66,0.00,,,0.00,meteohub,2013-02-15 20:07:00,
2013-02-15 15:12:00,39.6,28.8,30.00,West,277,4.0,14.0,65,0.00,,,0.00,meteohub,2013-02-15 20:12:00,
2013-02-15 15:17:00,39.4,30.7,30.01,NNW,328,8.0,18.0,71,0.00,,,0.00,meteohub,2013-02-15 20:17:00,
2013-02-15 15:22:00,38.3,31.6,30.01,WNW,294,6.0,18.0,77,0.00,,,0.00,meteohub,2013-02-15 20:22:00,
2013-02-15 15:27:00,37.6,31.3,30.02,West,278,4.0,14.0,78,0.00,,,0.00,meteohub,2013-02-15 20:27:00,
2013-02-15 15:32:00,37.0,31.5,30.02,WNW,289,8.0,14.0,80,0.00,,,0.00,meteohub,2013-02-15 20:32:00,
2013-02-15 15:37:00,37.0,30.7,30.02,WNW,295,3.0,13.0,78,0.00,,,0.00,meteohub,2013-02-15 20:37:00,
2013-02-15 15:42:00,37.6,30.4,30.01,NNW,336,4.0,9.0,75,0.00,,,0.00,meteohub,2013-02-15 20:42:00,
2013-02-15 15:47:00,38.1,29.5,30.01,WNW,287,2.0,9.0,71,0.00,,,0.00,meteohub,2013-02-15 20:47:00,
2013-02-15 15:52:00,38.5,28.4,30.02,West,281,5.0,11.0,67,0.00,,,0.00,meteohub,2013-02-15 20:52:00,
2013-02-15 15:57:00,39.0,29.3,30.02,NNW,337,3.0,11.0,68,0.00,,,0.00,meteohub,2013-02-15 20:57:00,
2013-02-15 16:02:00,39.4,28.9,30.02,NW,305,8.0,11.0,66,0.00,,,0.00,meteohub,2013-02-15 21:02:00,
2013-02-15 16:12:00,39.6,27.7,30.01,West,281,11.0,11.0,62,0.00,,,0.00,meteohub,2013-02-15 21:12:00,
2013-02-15 16:22:00,39.9,26.8,30.02,WNW,301,3.0,11.0,59,0.00,,,0.00,meteohub,2013-02-15 21:22:00,
2013-02-15 16:27:00,39.9,26.4,30.02,WNW,288,5.0,14.0,58,0.00,,,0.00,meteohub,2013-02-15 21:27:00,
2013-02-15 16:32:00,40.1,26.1,30.02,SW,235,5.0,14.0,57,0.00,,,0.00,meteohub,2013-02-15 21:32:00,
2013-02-15 16:37:00,39.7,25.7,30.02,WNW,293,9.0,14.0,57,0.00,,,0.00,meteohub,2013-02-15 21:37:00,
2013-02-15 16:47:00,38.1,28.9,30.03,NNW,344,5.0,14.0,69,0.00,,,0.00,meteohub,2013-02-15 21:47:00,
2013-02-15 16:52:00,37.8,28.6,30.03,NNW,345,7.0,14.0,69,0.00,,,0.00,meteohub,2013-02-15 21:52:00,
2013-02-15 16:57:00,37.8,27.9,30.03,NNW,337,5.0,14.0,67,0.00,,,0.00,meteohub,2013-02-15 21:57:00,
2013-02-15 17:07:00,38.1,26.6,30.04,NNW,348,6.0,11.0,63,0.00,,,0.00,meteohub,2013-02-15 22:07:00,
2013-02-15 17:17:00,37.8,27.9,30.04,North,357,7.0,15.0,67,0.00,,,0.00,meteohub,2013-02-15 22:17:00,
2013-02-15 17:22:00,37.2,28.0,30.04,North,354,15.0,15.0,69,0.00,,,0.00,meteohub,2013-02-15 22:22:00,
2013-02-15 17:27:00,36.5,27.0,30.04,NNW,334,6.0,19.0,68,0.00,,,0.00,meteohub,2013-02-15 22:27:00,
2013-02-15 17:32:00,36.1,27.0,30.05,NW,325,3.0,19.0,69,0.00,,,0.00,meteohub,2013-02-15 22:32:00,
2013-02-15 17:37:00,35.6,26.8,30.05,NW,307,3.0,19.0,70,0.00,,,0.00,meteohub,2013-02-15 22:37:00,
2013-02-15 17:42:00,35.2,26.4,30.05,North,353,9.0,14.0,70,0.00,,,0.00,meteohub,2013-02-15 22:42:00,
2013-02-15 17:47:00,35.1,26.2,30.05,NNW,330,8.0,14.0,70,0.00,,,0.00,meteohub,2013-02-15 22:47:00,
2013-02-15 17:52:00,34.9,25.3,30.06,NNW,337,9.0,14.0,68,0.00,,,0.00,meteohub,2013-02-15 22:52:00,
2013-02-15 17:57:00,34.9,25.7,30.06,NW,316,5.0,14.0,69,0.00,,,0.00,meteohub,2013-02-15 22:57:00,
2013-02-15 18:02:00,34.5,25.7,30.06,NNW,335,5.0,14.0,70,0.00,,,0.00,meteohub,2013-02-15 23:02:00,
2013-02-15 18:07:00,34.5,25.7,30.06,NNW,331,3.0,14.0,70,0.00,,,0.00,meteohub,2013-02-15 23:07:00,
2013-02-15 18:12:00,34.3,25.9,30.06,North,356,6.0,11.0,71,0.00,,,0.00,meteohub,2013-02-15 23:12:00,
2013-02-15 18:17:00,34.2,26.1,30.07,NNW,347,6.0,9.0,72,0.00,,,0.00,meteohub,2013-02-15 23:17:00,
2013-02-15 18:22:00,34.0,26.2,30.07,North,349,5.0,10.0,73,0.00,,,0.00,meteohub,2013-02-15 23:22:00,
2013-02-15 18:27:00,33.6,25.9,30.07,NNW,327,6.0,10.0,73,0.00,,,0.00,meteohub,2013-02-15 23:27:00,
2013-02-15 18:32:00,33.4,26.1,30.08,NNE,13,9.0,9.0,74,0.00,,,0.00,meteohub,2013-02-15 23:32:00,
2013-02-15 18:42:00,33.3,25.9,30.08,NNW,335,4.0,11.0,74,0.00,,,0.00,meteohub,2013-02-15 23:42:00,
2013-02-15 18:47:00,33.1,25.3,30.08,NNW,328,7.0,11.0,73,0.00,,,0.00,meteohub,2013-02-15 23:47:00,
2013-02-15 18:52:00,32.9,25.2,30.08,NNW,329,2.0,11.0,73,0.00,,,0.00,meteohub,2013-02-15 23:52:00,
2013-02-15 18:57:00,32.7,25.3,30.09,NNW,333,5.0,11.0,74,0.00,,,0.00,meteohub,2013-02-15 23:57:00,
2013-02-15 19:02:00,32.7,26.1,30.09,NNW,336,5.0,11.0,76,0.00,,,0.00,meteohub,2013-02-16 00:02:00,
2013-02-15 19:07:00,32.7,26.6,30.09,NNW,331,2.0,12.0,78,0.00,,,0.00,meteohub,2013-02-16 00:07:00,
2013-02-15 19:12:00,32.4,27.0,30.09,WNW,284,2.0,12.0,80,0.00,,,0.00,meteohub,2013-02-16 00:12:00,
2013-02-15 19:17:00,32.4,27.1,30.09,NW,305,0.0,12.0,81,0.00,,,0.00,meteohub,2013-02-16 00:17:00,
2013-02-15 19:22:00,32.4,27.0,30.09,NNW,343,3.0,10.0,80,0.00,,,0.00,meteohub,2013-02-16 00:22:00,
2013-02-15 19:27:00,32.4,26.6,30.10,North,358,5.0,7.0,79,0.00,,,0.00,meteohub,2013-02-16 00:27:00,
2013-02-15 19:32:00,32.4,25.7,30.10,WNW,295,2.0,13.0,76,0.00,,,0.00,meteohub,2013-02-16 00:32:00,
2013-02-15 19:37:00,32.4,24.3,30.10,NNW,345,5.0,13.0,72,0.00,,,0.00,meteohub,2013-02-16 00:37:00,
2013-02-15 19:47:00,32.2,24.3,30.10,NNW,343,3.0,11.0,72,0.00,,,0.00,meteohub,2013-02-16 00:47:00,
2013-02-15 19:52:00,32.2,23.9,30.10,NNW,335,5.0,9.0,71,0.00,,,0.00,meteohub,2013-02-16 00:52:00,
2013-02-15 19:57:00,32.0,24.1,30.10,NNW,338,3.0,7.0,72,0.00,,,0.00,meteohub,2013-02-16 00:57:00,
2013-02-15 20:07:00,31.8,24.4,30.11,NNE,22,2.0,7.0,74,0.00,,,0.00,meteohub,2013-02-16 01:07:00,
2013-02-15 20:12:00,31.6,23.9,30.11,North,351,2.0,6.0,73,0.00,,,0.00,meteohub,2013-02-16 01:12:00,
2013-02-15 20:17:00,31.5,24.1,30.11,NNW,347,0.0,5.0,74,0.00,,,0.00,meteohub,2013-02-16 01:17:00,
2013-02-15 20:22:00,31.5,24.1,30.10,NE,34,2.0,3.0,74,0.00,,,0.00,meteohub,2013-02-16 01:22:00,
2013-02-15 20:27:00,31.3,24.6,30.11,NE,40,1.0,3.0,76,0.00,,,0.00,meteohub,2013-02-16 01:27:00,
2013-02-15 20:32:00,31.1,24.1,30.11,NNE,31,0.0,3.0,75,0.00,,,0.00,meteohub,2013-02-16 01:32:00,
2013-02-15 20:37:00,30.9,24.3,30.11,NNE,33,0.0,2.0,76,0.00,,,0.00,meteohub,2013-02-16 01:37:00,
2013-02-15 20:42:00,30.2,23.9,30.11,NNE,32,0.0,2.0,77,0.00,,,0.00,meteohub,2013-02-16 01:42:00,
2013-02-15 20:47:00,29.5,23.5,30.11,SSE,160,1.0,1.0,78,0.00,,,0.00,meteohub,2013-02-16 01:47:00,
2013-02-15 20:52:00,28.9,23.9,30.11,South,174,0.0,2.0,81,0.00,,,0.00,meteohub,2013-02-16 01:52:00,
2013-02-15 20:57:00,28.8,24.3,30.11,SSE,155,0.0,2.0,83,0.00,,,0.00,meteohub,2013-02-16 01:57:00,
2013-02-15 21:02:00,28.4,23.9,30.11,SSE,155,0.0,2.0,83,0.00,,,0.00,meteohub,2013-02-16 02:02:00,
2013-02-15 21:07:00,28.0,23.9,30.11,SSE,155,0.0,1.0,84,0.00,,,0.00,meteohub,2013-02-16 02:07:00,
2013-02-15 21:17:00,27.1,23.0,30.11,SSE,155,0.0,0.0,84,0.00,,,0.00,meteohub,2013-02-16 02:17:00,
2013-02-15 21:22:00,27.0,23.0,30.11,SSE,155,0.0,0.0,85,0.00,,,0.00,meteohub,2013-02-16 02:22:00,
2013-02-15 21:27:00,26.6,23.0,30.11,SSW,210,0.0,0.0,86,0.00,,,0.00,meteohub,2013-02-16 02:27:00,
2013-02-15 21:32:00,26.4,22.8,30.11,SSW,205,0.0,1.0,86,0.00,,,0.00,meteohub,2013-02-16 02:32:00,
2013-02-15 21:37:00,26.2,22.6,30.12,SSW,195,0.0,1.0,86,0.00,,,0.00,meteohub,2013-02-16 02:37:00,
2013-02-15 21:42:00,26.1,22.6,30.12,SW,225,0.0,1.0,87,0.00,,,0.00,meteohub,2013-02-16 02:42:00,
2013-02-15 21:47:00,25.9,22.5,30.12,SW,226,0.0,0.0,87,0.00,,,0.00,meteohub,2013-02-16 02:47:00,
2013-02-15 21:52:00,25.7,22.5,30.12,SW,226,0.0,0.0,87,0.00,,,0.00,meteohub,2013-02-16 02:52:00,
2013-02-15 21:57:00,25.3,22.1,30.12,SW,226,0.0,0.0,87,0.00,,,0.00,meteohub,2013-02-16 02:57:00,
2013-02-15 22:02:00,25.0,21.7,30.12,SW,226,0.0,0.0,87,0.00,,,0.00,meteohub,2013-02-16 03:02:00,
2013-02-15 22:07:00,24.6,21.6,30.12,SW,226,0.0,0.0,88,0.00,,,0.00,meteohub,2013-02-16 03:07:00,
2013-02-15 22:12:00,24.4,21.4,30.12,SW,226,0.0,0.0,88,0.00,,,0.00,meteohub,2013-02-16 03:12:00,
2013-02-15 22:17:00,24.3,21.2,30.12,SW,226,0.0,0.0,88,0.00,,,0.00,meteohub,2013-02-16 03:17:00,
2013-02-15 22:22:00,23.9,21.2,30.12,SW,226,0.0,0.0,89,0.00,,,0.00,meteohub,2013-02-16 03:22:00,
2013-02-15 22:27:00,23.7,21.0,30.12,SW,226,0.0,0.0,89,0.00,,,0.00,meteohub,2013-02-16 03:27:00,
2013-02-15 22:32:00,23.4,20.7,30.12,SW,226,0.0,0.0,89,0.00,,,0.00,meteohub,2013-02-16 03:32:00,
2013-02-15 22:37:00,23.4,20.8,30.12,SW,226,0.0,0.0,90,0.00,,,0.00,meteohub,2013-02-16 03:37:00,
2013-02-15 22:42:00,23.5,21.0,30.12,SW,231,1.0,1.0,90,0.00,,,0.00,meteohub,2013-02-16 03:42:00,
2013-02-15 22:47:00,23.5,21.0,30.12,SW,231,0.0,1.0,90,0.00,,,0.00,meteohub,2013-02-16 03:47:00,
2013-02-15 22:52:00,23.5,21.0,30.12,NNW,347,0.0,1.0,90,0.00,,,0.00,meteohub,2013-02-16 03:52:00,
2013-02-15 22:57:00,23.5,21.0,30.12,SW,229,0.0,1.0,90,0.00,,,0.00,meteohub,2013-02-16 03:57:00,
2013-02-15 23:02:00,23.5,21.0,30.12,SSW,208,0.0,1.0,90,0.00,,,0.00,meteohub,2013-02-16 04:02:00,
2013-02-15 23:07:00,23.4,20.8,30.12,SSW,208,0.0,1.0,90,0.00,,,0.00,meteohub,2013-02-16 04:07:00,
2013-02-15 23:12:00,23.2,20.7,30.12,SSW,207,0.0,1.0,90,0.00,,,0.00,meteohub,2013-02-16 04:12:00,
2013-02-15 23:17:00,22.8,20.3,30.12,SSW,208,0.0,1.0,90,0.00,,,0.00,meteohub,2013-02-16 04:17:00,
2013-02-15 23:22:00,22.8,20.7,30.12,WSW,249,0.0,1.0,91,0.00,,,0.00,meteohub,2013-02-16 04:22:00,
2013-02-15 23:27:00,22.8,20.7,30.12,WSW,245,0.0,1.0,91,0.00,,,0.00,meteohub,2013-02-16 04:27:00,
2013-02-15 23:32:00,22.8,20.7,30.12,WSW,244,0.0,1.0,91,0.00,,,0.00,meteohub,2013-02-16 04:32:00,
2013-02-15 23:37:00,22.6,20.5,30.12,WSW,242,0.0,1.0,91,0.00,,,0.00,meteohub,2013-02-16 04:37:00,
2013-02-15 23:42:00,22.3,20.1,30.12,WSW,255,0.0,0.0,91,0.00,,,0.00,meteohub,2013-02-16 04:42:00,
2013-02-15 23:47:00,22.5,20.3,30.12,NW,305,0.0,0.0,91,0.00,,,0.00,meteohub,2013-02-16 04:47:00,
2013-02-15 23:52:00,22.5,20.3,30.12,NW,315,1.0,0.0,91,0.00,,,0.00,meteohub,2013-02-16 04:52:00,
2013-02-15 23:57:00,22.5,20.3,30.12,NW,314,1.0,2.0,91,0.00,,,0.00,meteohub,2013-02-16 04:57:00,